createdAt,value
2022-11-05T00:01:42.354Z,100.00
2022-11-05T00:04:30.951Z,100.00
2022-11-05T00:07:29.038Z,100.00
2022-11-05T00:10:00.721Z,100.00
2022-11-05T00:12:45.724Z,100.00
2022-11-05T00:15:30.333Z,100.00
2022-11-05T00:17:57.746Z,100.00
2022-11-05T00:20:25.411Z,100.00
2022-11-05T00:23:18.528Z,100.00
2022-11-05T00:25:55.866Z,100.00
2022-11-05T00:28:23.634Z,100.00
2022-11-05T00:30:51.121Z,100.00
2022-11-05T00:33:18.546Z,100.00
2022-11-05T00:35:46.201Z,100.00
2022-11-05T00:38:13.646Z,100.00
2022-11-05T00:40:41.079Z,100.00
2022-11-05T00:43:27.538Z,100.00
2022-11-05T00:45:55.002Z,100.00
2022-11-05T00:48:40.914Z,100.00
2022-11-05T00:51:08.865Z,100.00
2022-11-05T00:53:36.658Z,100.00
2022-11-05T00:56:04.410Z,100.00
2022-11-05T00:58:33.175Z,100.00
2022-11-05T01:01:02.127Z,100.00
2022-11-05T01:03:32.057Z,100.00
2022-11-05T01:06:06.342Z,100.00
2022-11-05T01:08:33.848Z,100.00
2022-11-05T01:11:01.434Z,100.00
2022-11-05T01:13:31.250Z,100.00
2022-11-05T01:16:07.138Z,100.00
2022-11-05T01:18:35.783Z,100.00
2022-11-05T01:21:11.446Z,100.00
2022-11-05T01:23:39.144Z,100.00
2022-11-05T01:26:07.048Z,100.00
2022-11-05T01:28:34.663Z,100.00
2022-11-05T01:31:03.718Z,100.00
2022-11-05T01:33:31.139Z,100.00
2022-11-05T01:35:58.826Z,100.00
2022-11-05T01:38:26.295Z,100.00
2022-11-05T01:40:54.028Z,100.00
2022-11-05T01:43:23.632Z,100.00
2022-11-05T01:45:53.737Z,100.00
2022-11-05T01:48:26.230Z,100.00
2022-11-05T01:50:59.127Z,100.00
2022-11-05T01:53:30.992Z,100.00
2022-11-05T01:56:02.017Z,100.00
2022-11-05T01:58:33.702Z,100.00
2022-11-05T02:01:01.158Z,100.00
2022-11-05T02:03:30.849Z,100.00
2022-11-05T02:06:01.462Z,100.00
2022-11-05T02:08:42.251Z,99.94
2022-11-05T02:11:10.279Z,99.81
2022-11-05T02:13:37.835Z,99.71
2022-11-05T02:16:13.818Z,100.00
2022-11-05T02:18:56.919Z,99.87
2022-11-05T02:21:46.642Z,99.90
2022-11-05T02:24:56.652Z,99.90
2022-11-05T02:27:42.297Z,99.57
2022-11-05T02:30:31.767Z,99.94
2022-11-05T02:33:16.462Z,99.98
2022-11-05T02:36:07.418Z,100.00
2022-11-05T02:38:41.290Z,100.00
2022-11-05T02:41:17.737Z,99.93
2022-11-05T02:43:53.666Z,100.00
2022-11-05T02:46:35.066Z,100.00
2022-11-05T02:49:14.428Z,100.00
2022-11-05T02:51:50.046Z,100.00
2022-11-05T02:54:22.837Z,100.00
2022-11-05T02:56:53.465Z,100.00
2022-11-05T02:59:20.963Z,100.00
2022-11-05T03:01:50.669Z,100.00
2022-11-05T03:04:22.171Z,100.00
2022-11-05T03:07:01.904Z,100.00
2022-11-05T03:09:46.483Z,100.00
2022-11-05T03:12:27.630Z,100.00
2022-11-05T03:15:01.214Z,100.00
2022-11-05T03:17:39.527Z,100.00
2022-11-05T03:20:18.819Z,100.00
2022-11-05T03:22:52.398Z,100.00
2022-11-05T03:25:22.515Z,100.00
2022-11-05T03:27:56.372Z,100.00
2022-11-05T03:30:32.522Z,100.00
2022-11-05T03:33:07.961Z,100.00
2022-11-05T03:35:40.277Z,100.00
2022-11-05T03:38:11.200Z,100.00
2022-11-05T03:40:41.869Z,100.00
2022-11-05T03:43:10.235Z,100.00
2022-11-05T03:45:42.729Z,99.99
2022-11-05T03:48:13.757Z,100.00
2022-11-05T03:50:46.458Z,100.00
2022-11-05T03:53:16.848Z,100.00
2022-11-05T03:55:53.345Z,100.00
2022-11-05T03:58:22.920Z,100.00
2022-11-05T04:00:51.794Z,100.00
2022-11-05T04:03:20.823Z,100.00
2022-11-05T04:06:09.185Z,100.00
2022-11-05T04:08:54.048Z,100.00
2022-11-05T04:11:39.174Z,100.00
2022-11-05T04:14:06.596Z,100.00
2022-11-05T04:16:51.616Z,100.00
2022-11-05T04:19:41.379Z,100.00
2022-11-05T04:22:26.238Z,100.00
2022-11-05T04:24:53.709Z,100.00
2022-11-05T04:27:21.202Z,100.00
2022-11-05T04:30:06.408Z,99.68
2022-11-05T04:32:33.846Z,99.54
2022-11-05T04:35:02.613Z,99.34
2022-11-05T04:37:30.057Z,99.05
2022-11-05T04:39:57.536Z,99.41
2022-11-05T04:42:24.974Z,99.67
2022-11-05T04:44:52.468Z,100.00
2022-11-05T04:47:19.894Z,99.94
2022-11-05T04:49:47.315Z,99.87
2022-11-05T04:52:17.796Z,100.00
2022-11-05T04:54:45.250Z,100.00
2022-11-05T04:57:12.742Z,100.00
2022-11-05T04:59:41.007Z,100.00
2022-11-05T05:02:08.607Z,100.00
2022-11-05T05:04:36.125Z,99.97
2022-11-05T05:07:03.542Z,99.79
2022-11-05T05:09:32.290Z,99.57
2022-11-05T05:11:59.742Z,99.28
2022-11-05T05:14:27.157Z,98.87
2022-11-05T05:16:54.633Z,99.46
2022-11-05T05:19:22.082Z,100.00
2022-11-05T05:21:48.553Z,100.00
2022-11-05T05:24:18.507Z,100.00
2022-11-05T05:26:49.204Z,100.00
2022-11-05T05:29:17.515Z,100.00
2022-11-05T05:31:45.940Z,100.00
2022-11-05T05:34:14.843Z,100.00
2022-11-05T05:36:42.256Z,100.00
2022-11-05T05:39:10.701Z,100.00
2022-11-05T05:41:38.139Z,100.00
2022-11-05T05:44:07.459Z,100.00
2022-11-05T05:46:34.885Z,100.00
2022-11-05T05:49:05.427Z,100.00
2022-11-05T05:51:35.387Z,100.00
2022-11-05T05:54:02.820Z,100.00
2022-11-05T05:56:30.301Z,100.00
2022-11-05T05:58:57.750Z,100.00
2022-11-05T06:01:26.573Z,100.00
2022-11-05T06:03:54.234Z,100.00
2022-11-05T06:06:22.587Z,100.00
2022-11-05T06:08:50.060Z,100.00
2022-11-05T06:11:17.557Z,100.00
2022-11-05T06:13:45.094Z,100.00
2022-11-05T06:16:12.550Z,100.00
2022-11-05T06:18:41.709Z,100.00
2022-11-05T06:21:11.349Z,100.00
2022-11-05T06:23:40.233Z,100.00
2022-11-05T06:26:09.507Z,100.00
2022-11-05T06:28:37.462Z,100.00
2022-11-05T06:31:05.739Z,100.00
2022-11-05T06:33:33.226Z,100.00
2022-11-05T06:36:03.316Z,100.00
2022-11-05T06:38:33.947Z,100.00
2022-11-05T06:41:05.835Z,100.00
2022-11-05T06:43:36.446Z,100.00
2022-11-05T06:46:04.501Z,100.00
2022-11-05T06:48:31.939Z,100.00
2022-11-05T06:50:59.578Z,100.00
2022-11-05T06:53:28.746Z,100.00
2022-11-05T06:55:56.324Z,100.00
2022-11-05T06:58:23.882Z,100.00
2022-11-05T07:00:51.417Z,100.00
2022-11-05T07:03:18.878Z,100.00
2022-11-05T07:05:49.336Z,100.00
2022-11-05T07:08:17.402Z,100.00
2022-11-05T07:10:46.189Z,100.00
2022-11-05T07:13:13.831Z,100.00
2022-11-05T07:15:41.546Z,100.00
2022-11-05T07:18:09.289Z,100.00
2022-11-05T07:20:36.743Z,100.00
2022-11-05T07:23:05.392Z,100.00
2022-11-05T07:25:34.001Z,100.00
2022-11-05T07:28:03.925Z,100.00
2022-11-05T07:30:32.244Z,100.00
2022-11-05T07:33:00.051Z,100.00
2022-11-05T07:35:28.171Z,100.00
2022-11-05T07:37:56.217Z,100.00
2022-11-05T07:40:25.941Z,100.00
2022-11-05T07:42:54.854Z,100.00
2022-11-05T07:45:24.667Z,100.00
2022-11-05T07:47:54.030Z,100.00
2022-11-05T07:50:23.302Z,100.00
2022-11-05T07:52:51.139Z,100.00
2022-11-05T07:55:20.066Z,100.00
2022-11-05T07:57:49.433Z,100.00
2022-11-05T08:00:19.848Z,100.00
2022-11-05T08:03:04.021Z,100.00
2022-11-05T08:05:37.424Z,100.00
2022-11-05T08:08:05.837Z,100.00
2022-11-05T08:10:33.939Z,100.00
2022-11-05T08:13:01.688Z,100.00
2022-11-05T08:15:29.566Z,100.00
2022-11-05T08:18:03.088Z,100.00
2022-11-05T08:20:30.864Z,100.00
2022-11-05T08:22:58.640Z,100.00
2022-11-05T08:25:26.993Z,100.00
2022-11-05T08:27:58.763Z,99.94
2022-11-05T08:30:27.013Z,99.39
2022-11-05T08:32:58.062Z,98.22
2022-11-05T08:35:27.433Z,97.19
2022-11-05T08:37:57.870Z,96.99
2022-11-05T08:40:25.797Z,96.68
2022-11-05T08:42:53.293Z,97.08
2022-11-05T08:45:20.693Z,97.02
2022-11-05T08:47:48.093Z,96.51
2022-11-05T08:50:15.674Z,96.64
2022-11-05T08:52:44.412Z,97.64
2022-11-05T08:55:11.825Z,97.78
2022-11-05T08:57:39.254Z,97.23
2022-11-05T09:00:08.103Z,94.24
2022-11-05T09:02:35.551Z,93.55
2022-11-05T09:05:03.094Z,93.54
2022-11-05T09:07:30.534Z,94.11
2022-11-05T09:09:59.288Z,94.36
2022-11-05T09:12:26.726Z,94.79
2022-11-05T09:14:54.194Z,94.72
2022-11-05T09:17:22.897Z,94.43
2022-11-05T09:19:50.384Z,93.67
2022-11-05T09:22:17.869Z,92.71
2022-11-05T09:24:45.302Z,91.84
2022-11-05T09:27:14.718Z,92.13
2022-11-05T09:29:42.243Z,92.47
2022-11-05T09:32:10.269Z,92.38
2022-11-05T09:34:37.692Z,92.25
2022-11-05T09:37:05.251Z,92.44
2022-11-05T09:39:32.678Z,91.64
2022-11-05T09:42:05.395Z,91.13
2022-11-05T09:44:41.726Z,91.07
2022-11-05T09:47:16.571Z,91.23
2022-11-05T09:49:49.927Z,90.66
2022-11-05T09:52:22.382Z,90.82
2022-11-05T09:54:51.372Z,90.43
2022-11-05T09:57:24.815Z,89.96
2022-11-05T09:59:57.038Z,89.71
2022-11-05T10:02:31.837Z,90.30
2022-11-05T10:05:09.489Z,89.38
2022-11-05T10:07:43.940Z,89.52
2022-11-05T10:10:24.646Z,89.40
2022-11-05T10:12:55.569Z,88.23
2022-11-05T10:15:29.053Z,89.58
2022-11-05T10:18:00.219Z,89.66
2022-11-05T10:20:33.751Z,88.17
2022-11-05T10:23:03.442Z,87.82
2022-11-05T10:25:36.644Z,87.48
2022-11-05T10:28:05.617Z,88.35
2022-11-05T10:30:35.179Z,88.28
2022-11-05T10:33:07.547Z,88.52
2022-11-05T10:35:41.781Z,88.01
2022-11-05T10:38:14.951Z,88.76
2022-11-05T10:40:56.159Z,88.03
2022-11-05T10:43:29.338Z,86.48
2022-11-05T10:46:05.151Z,86.33
2022-11-05T10:48:55.459Z,85.42
2022-11-05T10:51:23.342Z,86.05
2022-11-05T10:54:00.308Z,84.77
2022-11-05T10:56:31.874Z,84.18
2022-11-05T10:59:01.745Z,85.01
2022-11-05T11:01:31.628Z,84.81
2022-11-05T11:04:17.154Z,84.02
2022-11-05T11:06:50.609Z,83.31
2022-11-05T11:09:25.528Z,84.90
2022-11-05T11:12:01.575Z,82.62
2022-11-05T11:14:29.753Z,83.35
2022-11-05T11:17:18.489Z,82.74
2022-11-05T11:19:46.489Z,83.17
2022-11-05T11:22:20.841Z,82.27
2022-11-05T11:24:50.774Z,83.64
2022-11-05T11:27:24.066Z,82.28
2022-11-05T11:29:57.345Z,83.56
2022-11-05T11:32:28.983Z,83.84
2022-11-05T11:34:58.230Z,82.84
2022-11-05T11:37:28.692Z,83.37
2022-11-05T11:40:00.900Z,81.68
2022-11-05T11:42:32.638Z,82.15
2022-11-05T11:45:05.452Z,82.16
2022-11-05T11:47:34.545Z,83.51
2022-11-05T11:50:03.092Z,80.95
2022-11-05T11:52:32.002Z,81.35
2022-11-05T11:55:20.750Z,80.52
2022-11-05T11:57:50.627Z,79.25
2022-11-05T12:00:19.530Z,80.18
2022-11-05T12:03:02.131Z,79.61
2022-11-05T12:05:41.336Z,80.20
2022-11-05T12:08:23.559Z,78.97
2022-11-05T12:10:58.786Z,80.42
2022-11-05T12:13:51.128Z,80.66
2022-11-05T12:16:29.850Z,80.85
2022-11-05T12:19:10.009Z,81.89
2022-11-05T12:21:53.492Z,81.60
2022-11-05T12:24:37.426Z,80.79
2022-11-05T12:27:19.353Z,82.51
2022-11-05T12:29:55.136Z,81.58
2022-11-05T12:32:41.043Z,81.71
2022-11-05T12:35:23.390Z,81.93
2022-11-05T12:37:58.708Z,80.96
2022-11-05T12:40:44.759Z,80.27
2022-11-05T12:43:17.831Z,80.59
2022-11-05T12:45:50.456Z,79.44
2022-11-05T12:48:36.725Z,79.27
2022-11-05T12:51:17.046Z,79.67
2022-11-05T12:53:57.083Z,79.20
2022-11-05T12:56:32.902Z,78.43
2022-11-05T12:59:03.948Z,77.59
2022-11-05T13:01:36.275Z,77.58
2022-11-05T13:04:11.744Z,77.64
2022-11-05T13:06:45.612Z,77.98
2022-11-05T13:09:18.536Z,78.15
2022-11-05T13:11:52.679Z,77.55
2022-11-05T13:14:23.938Z,78.89
2022-11-05T13:16:54.737Z,77.07
2022-11-05T13:19:25.898Z,76.72
2022-11-05T13:21:58.583Z,76.97
2022-11-05T13:24:29.608Z,78.08
2022-11-05T13:27:01.946Z,77.68
2022-11-05T13:29:35.151Z,78.45
2022-11-05T13:32:13.026Z,79.11
2022-11-05T13:34:40.691Z,77.68
2022-11-05T13:37:27.897Z,78.51
2022-11-05T13:39:59.413Z,77.71
2022-11-05T13:42:48.042Z,77.46
2022-11-05T13:45:38.916Z,77.50
2022-11-05T13:48:39.595Z,77.52
2022-11-05T13:51:39.488Z,78.63
2022-11-05T13:54:39.929Z,77.57
2022-11-05T13:57:23.609Z,76.25
2022-11-05T14:00:07.958Z,75.10
2022-11-05T14:02:41.286Z,76.29
2022-11-05T14:05:21.146Z,77.13
2022-11-05T14:07:49.453Z,77.59
2022-11-05T14:10:26.839Z,76.56
2022-11-05T14:12:56.434Z,77.69
2022-11-05T14:15:28.072Z,78.28
2022-11-05T14:17:58.540Z,79.26
2022-11-05T14:20:57.231Z,78.42
2022-11-05T14:23:52.302Z,77.86
2022-11-05T14:26:23.793Z,78.92
2022-11-05T14:29:10.977Z,79.13
2022-11-05T14:32:08.471Z,79.63
2022-11-05T14:34:46.378Z,80.23
2022-11-05T14:37:29.106Z,79.87
2022-11-05T14:39:57.667Z,80.19
2022-11-05T14:42:29.444Z,81.01
2022-11-05T14:45:00.686Z,81.05
2022-11-05T14:47:31.649Z,81.30
2022-11-05T14:50:03.079Z,81.44
2022-11-05T14:52:30.571Z,82.78
2022-11-05T14:54:59.166Z,82.43
2022-11-05T14:58:03.016Z,82.89
2022-11-05T15:00:49.147Z,83.60
2022-11-05T15:03:32.637Z,84.07
2022-11-05T15:06:21.789Z,84.79
2022-11-05T15:09:04.709Z,85.16
2022-11-05T15:11:36.581Z,85.37
2022-11-05T15:14:09.221Z,86.06
2022-11-05T15:16:43.721Z,87.00
2022-11-05T15:19:18.827Z,87.79
2022-11-05T15:21:46.665Z,88.74
2022-11-05T15:24:16.895Z,89.09
2022-11-05T15:26:48.406Z,89.71
2022-11-05T15:29:18.893Z,90.29
2022-11-05T15:31:48.160Z,90.56
2022-11-05T15:34:22.443Z,90.64
2022-11-05T15:36:53.349Z,91.23
2022-11-05T15:39:32.907Z,91.10
2022-11-05T15:42:05.513Z,91.37
2022-11-05T15:44:34.860Z,91.59
2022-11-05T15:47:15.741Z,92.06
2022-11-05T15:49:45.447Z,92.44
2022-11-05T15:52:14.636Z,92.60
2022-11-05T15:54:42.553Z,93.00
2022-11-05T15:57:23.802Z,92.59
2022-11-05T15:59:51.551Z,93.11
2022-11-05T16:02:32.075Z,92.94
2022-11-05T16:05:01.331Z,92.96
2022-11-05T16:07:29.438Z,92.72
2022-11-05T16:09:59.121Z,92.54
2022-11-05T16:12:32.337Z,92.81
2022-11-05T16:15:03.746Z,92.70
2022-11-05T16:17:46.167Z,92.96
2022-11-05T16:20:26.437Z,93.29
2022-11-05T16:22:56.070Z,93.11
2022-11-05T16:25:28.001Z,93.18
2022-11-05T16:27:55.869Z,93.58
2022-11-05T16:30:23.786Z,93.61
2022-11-05T16:32:53.265Z,93.75
2022-11-05T16:35:22.363Z,93.90
2022-11-05T16:37:52.454Z,94.07
2022-11-05T16:40:22.138Z,94.09
2022-11-05T16:42:51.395Z,94.17
2022-11-05T16:45:21.220Z,94.21
2022-11-05T16:47:49.521Z,94.30
2022-11-05T16:50:23.250Z,94.24
2022-11-05T16:52:51.639Z,94.46
2022-11-05T16:55:20.392Z,94.46
2022-11-05T16:57:50.625Z,94.36
2022-11-05T17:00:19.848Z,94.37
2022-11-05T17:02:47.847Z,94.44
2022-11-05T17:05:22.877Z,94.51
2022-11-05T17:07:50.599Z,94.77
2022-11-05T17:10:18.673Z,94.62
2022-11-05T17:12:47.071Z,94.99
2022-11-05T17:15:23.183Z,94.99
2022-11-05T17:17:51.103Z,94.81
2022-11-05T17:20:38.337Z,95.23
2022-11-05T17:23:08.967Z,95.14
2022-11-05T17:25:36.505Z,95.05
2022-11-05T17:28:04.783Z,94.98
2022-11-05T17:30:32.984Z,95.19
2022-11-05T17:33:00.610Z,95.23
2022-11-05T17:35:29.482Z,95.28
2022-11-05T17:37:57.090Z,95.51
2022-11-05T17:40:25.343Z,95.46
2022-11-05T17:42:53.213Z,95.54
2022-11-05T17:45:20.663Z,96.21
2022-11-05T17:47:48.060Z,95.77
2022-11-05T17:50:17.308Z,95.80
2022-11-05T17:52:46.106Z,95.47
2022-11-05T17:55:17.404Z,95.64
2022-11-05T17:57:47.009Z,95.71
2022-11-05T18:00:17.056Z,95.97
2022-11-05T18:02:45.952Z,96.10
2022-11-05T18:05:14.243Z,95.84
2022-11-05T18:07:42.222Z,95.95
2022-11-05T18:10:11.420Z,96.04
2022-11-05T18:12:39.308Z,95.90
2022-11-05T18:15:08.384Z,96.01
2022-11-05T18:17:35.916Z,95.95
2022-11-05T18:20:03.648Z,95.82
2022-11-05T18:22:31.078Z,95.77
2022-11-05T18:24:58.569Z,95.77
2022-11-05T18:27:27.665Z,96.21
2022-11-05T18:29:55.645Z,95.93
2022-11-05T18:32:23.350Z,95.89
2022-11-05T18:34:50.808Z,95.98
2022-11-05T18:37:18.612Z,96.18
2022-11-05T18:39:46.440Z,96.28
2022-11-05T18:42:13.923Z,96.31
2022-11-05T18:44:42.736Z,96.11
2022-11-05T18:47:10.608Z,96.09
2022-11-05T18:49:38.113Z,96.24
2022-11-05T18:52:06.194Z,95.79
2022-11-05T18:54:33.702Z,95.94
2022-11-05T18:57:01.331Z,95.62
2022-11-05T18:59:38.689Z,95.34
2022-11-05T19:02:09.537Z,95.32
2022-11-05T19:04:37.274Z,95.27
2022-11-05T19:07:05.847Z,94.88
2022-11-05T19:09:33.656Z,94.96
2022-11-05T19:12:01.161Z,94.64
2022-11-05T19:14:29.861Z,94.73
2022-11-05T19:16:57.603Z,94.50
2022-11-05T19:19:26.498Z,94.35
2022-11-05T19:21:54.197Z,93.96
2022-11-05T19:24:21.694Z,94.21
2022-11-05T19:26:49.153Z,93.94
2022-11-05T19:29:16.635Z,93.75
2022-11-05T19:31:44.314Z,93.92
2022-11-05T19:34:13.251Z,94.04
2022-11-05T19:36:43.163Z,94.05
2022-11-05T19:39:13.415Z,94.19
2022-11-05T19:41:40.901Z,94.24
2022-11-05T19:44:08.903Z,94.25
2022-11-05T19:46:36.639Z,94.38
2022-11-05T19:49:04.786Z,94.42
2022-11-05T19:51:33.367Z,94.39
2022-11-05T19:54:03.562Z,94.48
2022-11-05T19:56:32.915Z,94.49
2022-11-05T19:59:02.929Z,94.61
2022-11-05T20:01:31.488Z,94.32
2022-11-05T20:03:59.963Z,94.56
2022-11-05T20:06:31.769Z,94.26
2022-11-05T20:11:50.389Z,93.68
2022-11-05T20:14:18.157Z,93.87
2022-11-05T20:16:47.084Z,93.38
2022-11-05T20:19:16.874Z,92.93
2022-11-05T20:21:45.200Z,92.63
2022-11-05T20:24:20.571Z,92.53
2022-11-05T20:26:52.169Z,92.41
2022-11-05T20:29:19.668Z,92.28
2022-11-05T20:31:47.856Z,92.52
2022-11-05T20:34:15.395Z,92.39
2022-11-05T20:36:43.011Z,92.88
2022-11-05T20:39:11.892Z,92.36
2022-11-05T20:41:40.692Z,92.63
2022-11-05T20:44:08.127Z,92.34
2022-11-05T20:46:35.806Z,92.54
2022-11-05T20:49:03.382Z,92.80
2022-11-05T20:51:30.951Z,92.66
2022-11-05T20:54:00.366Z,92.57
2022-11-05T20:56:29.461Z,92.82
2022-11-05T20:58:59.359Z,92.58
2022-11-05T21:01:28.389Z,92.69
2022-11-05T21:03:56.681Z,92.58
2022-11-05T21:06:24.156Z,92.31
2022-11-05T21:08:52.955Z,92.27
2022-11-05T21:11:21.042Z,92.51
2022-11-05T21:13:49.161Z,92.63
2022-11-05T21:16:19.579Z,92.49
2022-11-05T21:18:48.315Z,92.75
2022-11-05T21:21:17.500Z,92.92
2022-11-05T21:23:45.012Z,92.82
2022-11-05T21:26:13.934Z,92.80
2022-11-05T21:28:42.170Z,92.97
2022-11-05T21:31:10.623Z,93.15
2022-11-05T21:33:39.740Z,93.20
2022-11-05T21:36:09.239Z,93.18
2022-11-05T21:38:37.163Z,93.32
2022-11-05T21:41:05.737Z,93.53
2022-11-05T21:43:33.877Z,93.79
2022-11-05T21:46:02.139Z,93.62
2022-11-05T21:48:29.901Z,93.76
2022-11-05T21:51:12.668Z,93.81
2022-11-05T21:53:58.760Z,93.67
2022-11-05T21:56:45.034Z,94.09
2022-11-05T21:59:32.219Z,94.13
2022-11-05T22:02:02.410Z,93.90
2022-11-05T22:04:30.409Z,93.84
2022-11-05T22:06:59.510Z,93.96
2022-11-05T22:09:27.746Z,94.02
2022-11-05T22:11:55.700Z,93.93
2022-11-05T22:14:24.166Z,93.88
2022-11-05T22:16:51.682Z,93.74
2022-11-05T22:19:19.630Z,94.04
2022-11-05T22:21:47.743Z,93.79
2022-11-05T22:24:16.897Z,93.86
2022-11-05T22:26:45.335Z,93.71
2022-11-05T22:29:13.450Z,93.87
2022-11-05T22:31:41.270Z,94.43
2022-11-05T22:34:10.333Z,94.33
2022-11-05T22:36:37.971Z,94.36
2022-11-05T22:39:06.040Z,94.51
2022-11-05T22:41:34.914Z,94.41
2022-11-05T22:44:03.464Z,94.52
2022-11-05T22:46:31.649Z,94.44
2022-11-05T22:49:00.566Z,94.48
2022-11-05T22:51:29.770Z,94.46
2022-11-05T22:53:57.918Z,94.23
2022-11-05T22:56:27.370Z,94.38
2022-11-05T22:58:56.724Z,93.92
2022-11-05T23:01:25.521Z,94.21
2022-11-05T23:03:55.378Z,94.19
2022-11-05T23:06:42.250Z,94.60
2022-11-05T23:09:32.061Z,94.28
2022-11-05T23:11:59.822Z,93.42
2022-11-05T23:14:29.328Z,93.47
2022-11-05T23:17:14.226Z,93.45
2022-11-05T23:19:59.434Z,93.86
2022-11-05T23:22:46.190Z,94.08
2022-11-05T23:25:17.467Z,94.15
2022-11-05T23:27:46.830Z,94.51
2022-11-05T23:30:18.733Z,94.53
2022-11-05T23:32:45.202Z,94.51
2022-11-05T23:35:13.206Z,94.46
2022-11-05T23:38:00.710Z,94.62
2022-11-05T23:40:29.881Z,94.50
2022-11-05T23:43:15.543Z,94.44
2022-11-05T23:46:03.240Z,94.55
2022-11-05T23:48:33.112Z,94.67
2022-11-05T23:51:02.895Z,94.21
2022-11-05T23:53:31.822Z,94.35
2022-11-05T23:56:01.277Z,94.34
2022-11-05T23:58:28.983Z,94.59
